首页
METAR-TAF:

METAR-TAF

机场 :

吉布提-安布利国际机场

吉布地, 吉布提

纬度: 11-33N, 经度: 043-10E, 海拔: 49米

当前天气观测

该预报发布于1小时和35分钟前的04:00 UTC
风速5节,风向
温度 31°C
湿度 75%
气压 1007 hPa
能見度: 8000
天空无云
霾,

METAR: HDAM 280400Z 19005KT 8000 HZ SKC 31/26 Q1007

时间: 08:35 (05:35 UTC)

预报

预报有效从28日的 00点(UTC)到 28日的 24点(UTC)
风速10节,风向
能見度: 9000
少量云层高于2000英尺
成为
从 18日的 06点(UTC)到 18日的 12点(UTC)
风速10节,风向,有时为15节阵风
能見度: 8000
少量云层高于2300英尺
成为
从 18日的 15点(UTC)到 18日的 21点(UTC)
风速10节,风向
天空无云

TAF: HDAM 2800/2824 19010KT 9000 HZ FEW020 BECMG 1806/1812 09010G15KT 8000 HZ FEW023 BECMG 1815/1821 17010KT SKC

超过4000个机场的气象观测和天气预报(METAR&TAF报告)。

可查询的气象台以黄色和红色小点在地图上表示。

将鼠标移到小点上方,可查看气象台名称。

然后点击查看天气观测和预报。

如需切换地图:点击带黑十字的绿色按钮放大地图;点击带横线的绿色按钮缩小地图;或者点击绿色箭头查看邻近地区的地图。


METAR-TAF: